AFR333F KBOS-LFPG
Flight info
| Callsign | AFR333F |
|---|---|
| Flight time | 6h 16m |
| Altitude | 35000 |
| Route | LBSTA8 LBSTA DCT ALLEX N357C JOOPY/M084F370 DCT 49N050W 51N040W 52N030W 52N020W DCT LIMRI/N0485F370 DCT XETBO/M084F390 DCT ARKIL/N0483F390 DCT ANNET UM25 INGOR/N0489F280 UM25 LUKIP |
| Aircraft | B77W/H-SDE1E2E3FGHIJ2J3J4J5M1RWXY/LB1D1 |
Departure
| Time | 2026-05-07 19:39 |
|---|---|
| Airport | Boston Logan International Airport (KBOS) |
Arrival
| Time | 2026-05-08 01:55 |
|---|---|
| Airport | Charles de Gaulle International Airport (LFPG) |
| Time | Latitude | Longitude | Altitude | Speed | Heading |
|---|---|---|---|---|---|
| 2026-05-07 18:40 | 42.37146 | -71.02088 | 30 ft | 0 kts | 176° |
| 2026-05-07 19:24 | 42.37147 | -71.02088 | 30 ft | 1 kts | 176° |
| 2026-05-07 19:24 | 42.37170 | -71.02090 | 30 ft | 4 kts | 176° |
| 2026-05-07 19:25 | 42.37197 | -71.02091 | 30 ft | 4 kts | 176° |
| 2026-05-07 19:25 | 42.37221 | -71.02093 | 30 ft | 4 kts | 162° |
| 2026-05-07 19:25 | 42.37235 | -71.02112 | 30 ft | 4 kts | 94° |
| 2026-05-07 19:25 | 42.37234 | -71.02147 | 30 ft | 3 kts | 81° |
| 2026-05-07 19:26 | 42.37233 | -71.02150 | 30 ft | 0 kts | 81° |
| 2026-05-07 19:30 | 42.37233 | -71.02149 | 30 ft | 1 kts | 81° |
| 2026-05-07 19:31 | 42.37237 | -71.02097 | 30 ft | 8 kts | 92° |
| 2026-05-07 19:31 | 42.37233 | -71.02018 | 30 ft | 9 kts | 95° |
| 2026-05-07 19:31 | 42.37213 | -71.01942 | 29 ft | 9 kts | 119° |
| 2026-05-07 19:31 | 42.37181 | -71.01871 | 30 ft | 9 kts | 123° |
| 2026-05-07 19:32 | 42.37147 | -71.01800 | 30 ft | 9 kts | 123° |
| 2026-05-07 19:32 | 42.37111 | -71.01727 | 29 ft | 9 kts | 123° |
| 2026-05-07 19:32 | 42.37071 | -71.01656 | 30 ft | 10 kts | 133° |
| 2026-05-07 19:32 | 42.37025 | -71.01591 | 30 ft | 10 kts | 134° |
| 2026-05-07 19:33 | 42.36969 | -71.01513 | 29 ft | 14 kts | 134° |
| 2026-05-07 19:33 | 42.36895 | -71.01410 | 29 ft | 17 kts | 134° |
| 2026-05-07 19:33 | 42.36806 | -71.01287 | 30 ft | 20 kts | 136° |
| 2026-05-07 19:33 | 42.36677 | -71.01252 | 30 ft | 20 kts | 192° |
| 2026-05-07 19:34 | 42.36537 | -71.01317 | 30 ft | 22 kts | 206° |
| 2026-05-07 19:34 | 42.36400 | -71.01390 | 30 ft | 20 kts | 178° |
| 2026-05-07 19:34 | 42.36339 | -71.01316 | 30 ft | 12 kts | 121° |
| 2026-05-07 19:34 | 42.36288 | -71.01203 | 30 ft | 16 kts | 121° |
| 2026-05-07 19:35 | 42.36235 | -71.01065 | 30 ft | 18 kts | 112° |
| 2026-05-07 19:35 | 42.36183 | -71.00903 | 30 ft | 20 kts | 116° |
| 2026-05-07 19:35 | 42.36123 | -71.00725 | 31 ft | 21 kts | 110° |
| 2026-05-07 19:35 | 42.36074 | -71.00529 | 30 ft | 23 kts | 108° |
| 2026-05-07 19:36 | 42.36021 | -71.00324 | 30 ft | 23 kts | 109° |
| 2026-05-07 19:36 | 42.36004 | -71.00259 | 30 ft | 0 kts | 109° |
| 2026-05-07 19:36 | 42.36003 | -71.00254 | 30 ft | 2 kts | 109° |
| 2026-05-07 19:36 | 42.35982 | -71.00173 | 30 ft | 21 kts | 109° |
| 2026-05-07 19:37 | 42.35878 | -70.99973 | 30 ft | 26 kts | 134° |
| 2026-05-07 19:37 | 42.35748 | -70.99800 | 30 ft | 26 kts | 136° |
| 2026-05-07 19:37 | 42.35621 | -70.99632 | 30 ft | 21 kts | 135° |
| 2026-05-07 19:37 | 42.35518 | -70.99492 | 30 ft | 21 kts | 129° |
| 2026-05-07 19:38 | 42.35515 | -70.99310 | 30 ft | 20 kts | 45° |
| 2026-05-07 19:38 | 42.35593 | -70.99340 | 29 ft | 0 kts | 314° |
| 2026-05-07 19:38 | 42.35610 | -70.99363 | 30 ft | 20 kts | 315° |
| 2026-05-07 19:38 | 42.35940 | -70.99808 | 30 ft | 112 kts | 315° |
| 2026-05-07 19:39 | 42.36684 | -71.00807 | 37 ft | 185 kts | 315° |
| 2026-05-07 19:39 | 42.37626 | -71.02119 | 622 ft | 198 kts | 313° |
| 2026-05-07 19:39 | 42.38594 | -71.03509 | 1437 ft | 205 kts | 312° |
| 2026-05-07 19:39 | 42.39492 | -71.04971 | 2382 ft | 208 kts | 304° |
| 2026-05-07 19:40 | 42.40331 | -71.06481 | 3513 ft | 190 kts | 314° |
| 2026-05-07 19:40 | 42.41270 | -71.07721 | 4421 ft | 190 kts | 314° |
| 2026-05-07 19:40 | 42.42218 | -71.08998 | 5132 ft | 195 kts | 314° |
| 2026-05-07 19:40 | 42.43193 | -71.10318 | 5841 ft | 200 kts | 314° |
| 2026-05-07 19:41 | 42.44177 | -71.11648 | 6542 ft | 205 kts | 314° |
| 2026-05-07 19:41 | 42.45189 | -71.13018 | 7280 ft | 206 kts | 313° |
| 2026-05-07 19:41 | 42.46214 | -71.14407 | 7943 ft | 210 kts | 313° |
| 2026-05-07 19:41 | 42.47225 | -71.15856 | 8500 ft | 212 kts | 311° |
| 2026-05-07 19:42 | 42.48268 | -71.17296 | 9092 ft | 218 kts | 320° |
| 2026-05-07 19:42 | 42.49725 | -71.18104 | 9388 ft | 247 kts | 357° |
| 2026-05-07 19:42 | 42.51460 | -71.17448 | 9608 ft | 280 kts | 33° |
| 2026-05-07 19:42 | 42.52725 | -71.15355 | 10134 ft | 300 kts | 69° |
| 2026-05-07 19:43 | 42.53083 | -71.12529 | 10546 ft | 321 kts | 89° |
| 2026-05-07 19:43 | 42.53479 | -71.09445 | 10689 ft | 346 kts | 66° |
| 2026-05-07 19:43 | 42.54574 | -71.06426 | 10897 ft | 370 kts | 62° |
| 2026-05-07 19:43 | 42.55865 | -71.03265 | 11283 ft | 393 kts | 59° |
| 2026-05-07 19:44 | 42.57276 | -71.00011 | 12040 ft | 405 kts | 58° |
| 2026-05-07 19:44 | 42.58746 | -70.96680 | 12854 ft | 415 kts | 58° |
| 2026-05-07 19:44 | 42.60248 | -70.93288 | 13749 ft | 422 kts | 58° |
| 2026-05-07 19:44 | 42.61765 | -70.89847 | 14684 ft | 427 kts | 59° |
| 2026-05-07 19:45 | 42.63280 | -70.86392 | 15570 ft | 433 kts | 59° |
| 2026-05-07 19:45 | 42.64830 | -70.82839 | 16407 ft | 440 kts | 59° |
| 2026-05-07 19:45 | 42.66401 | -70.79218 | 17220 ft | 446 kts | 59° |
| 2026-05-07 19:45 | 42.67982 | -70.75560 | 18012 ft | 452 kts | 59° |
| 2026-05-07 19:46 | 42.69591 | -70.71838 | 18795 ft | 459 kts | 59° |
| 2026-05-07 19:46 | 42.71220 | -70.68065 | 19520 ft | 466 kts | 59° |
| 2026-05-07 19:46 | 42.72878 | -70.64218 | 20226 ft | 473 kts | 59° |
| 2026-05-07 19:46 | 42.74528 | -70.60383 | 20914 ft | 479 kts | 59° |
| 2026-05-07 19:47 | 42.76222 | -70.56442 | 21598 ft | 485 kts | 59° |
| 2026-05-07 19:47 | 42.77932 | -70.52458 | 22261 ft | 490 kts | 59° |
| 2026-05-07 19:47 | 42.79666 | -70.48418 | 22884 ft | 496 kts | 59° |
| 2026-05-07 19:47 | 42.81414 | -70.44322 | 23478 ft | 502 kts | 59° |
| 2026-05-07 19:48 | 42.83179 | -70.40185 | 24066 ft | 507 kts | 59° |
| 2026-05-07 19:48 | 42.84965 | -70.36012 | 24653 ft | 512 kts | 59° |
| 2026-05-07 19:48 | 42.86766 | -70.31859 | 25191 ft | 517 kts | 57° |
| 2026-05-07 19:48 | 42.88721 | -70.27711 | 25706 ft | 522 kts | 55° |
| 2026-05-07 19:49 | 42.90774 | -70.23576 | 26215 ft | 527 kts | 54° |
| 2026-05-07 19:49 | 42.92871 | -70.19434 | 26703 ft | 532 kts | 54° |
| 2026-05-07 19:49 | 42.94980 | -70.15262 | 27183 ft | 536 kts | 54° |
| 2026-05-07 19:49 | 42.97098 | -70.11033 | 27670 ft | 540 kts | 54° |
| 2026-05-07 19:50 | 42.99186 | -70.06819 | 28087 ft | 545 kts | 54° |
| 2026-05-07 19:50 | 43.01333 | -70.02448 | 28484 ft | 549 kts | 55° |
| 2026-05-07 19:50 | 43.03437 | -69.98143 | 28853 ft | 553 kts | 55° |
| 2026-05-07 19:50 | 43.05573 | -69.93746 | 29182 ft | 557 kts | 55° |
| 2026-05-07 19:51 | 43.07727 | -69.89304 | 29522 ft | 560 kts | 55° |
| 2026-05-07 19:51 | 43.09891 | -69.84846 | 29876 ft | 563 kts | 55° |
| 2026-05-07 19:51 | 43.12062 | -69.80376 | 30314 ft | 563 kts | 55° |
| 2026-05-07 19:51 | 43.14224 | -69.75912 | 30771 ft | 562 kts | 56° |
| 2026-05-07 19:52 | 43.16360 | -69.71433 | 31267 ft | 561 kts | 55° |
| 2026-05-07 19:52 | 43.18500 | -69.66980 | 31804 ft | 557 kts | 55° |
| 2026-05-07 19:52 | 43.20605 | -69.62611 | 32224 ft | 557 kts | 55° |
| 2026-05-07 19:52 | 43.22751 | -69.58180 | 32659 ft | 556 kts | 55° |
| 2026-05-07 19:53 | 43.24888 | -69.53764 | 33109 ft | 555 kts | 55° |
| 2026-05-07 19:53 | 43.27016 | -69.49352 | 33551 ft | 554 kts | 55° |
| 2026-05-07 19:53 | 43.29139 | -69.44938 | 33933 ft | 553 kts | 55° |
| 2026-05-07 19:53 | 43.31256 | -69.40514 | 34274 ft | 554 kts | 55° |
| 2026-05-07 19:54 | 43.33379 | -69.36072 | 34628 ft | 554 kts | 55° |
| 2026-05-07 19:54 | 43.35466 | -69.31694 | 34784 ft | 556 kts | 55° |
| 2026-05-07 19:54 | 43.39708 | -69.22778 | 34749 ft | 554 kts | 56° |
| 2026-05-07 19:55 | 43.43902 | -69.13938 | 34741 ft | 550 kts | 56° |
| 2026-05-07 19:55 | 43.48085 | -69.05105 | 34749 ft | 550 kts | 56° |
| 2026-05-07 19:56 | 43.52235 | -68.96311 | 34751 ft | 550 kts | 56° |
| 2026-05-07 19:56 | 43.56404 | -68.87450 | 34741 ft | 552 kts | 56° |
| 2026-05-07 19:57 | 43.60582 | -68.78535 | 34738 ft | 553 kts | 56° |
| 2026-05-07 19:57 | 43.64762 | -68.69601 | 34745 ft | 554 kts | 56° |
| 2026-05-07 19:58 | 43.68910 | -68.60703 | 34742 ft | 554 kts | 56° |
| 2026-05-07 19:58 | 43.73086 | -68.51714 | 34739 ft | 554 kts | 56° |
| 2026-05-07 19:59 | 43.77251 | -68.42724 | 34740 ft | 555 kts | 56° |
| 2026-05-07 19:59 | 43.81411 | -68.33715 | 34741 ft | 554 kts | 56° |
| 2026-05-07 20:00 | 43.85542 | -68.24744 | 34738 ft | 555 kts | 56° |
| 2026-05-07 20:00 | 43.89692 | -68.15706 | 34733 ft | 555 kts | 56° |
| 2026-05-07 20:01 | 43.93805 | -68.06714 | 34731 ft | 554 kts | 56° |
| 2026-05-07 20:01 | 43.97937 | -67.97651 | 34724 ft | 555 kts | 57° |
| 2026-05-07 20:02 | 44.02059 | -67.88590 | 34735 ft | 554 kts | 57° |
| 2026-05-07 20:02 | 44.06147 | -67.79571 | 34729 ft | 554 kts | 57° |
| 2026-05-07 20:03 | 44.10256 | -67.70481 | 34731 ft | 554 kts | 57° |
| 2026-05-07 20:03 | 44.14336 | -67.61429 | 34721 ft | 553 kts | 57° |
| 2026-05-07 20:04 | 44.18413 | -67.52345 | 34734 ft | 553 kts | 57° |
| 2026-05-07 20:04 | 44.22484 | -67.43253 | 34738 ft | 552 kts | 57° |
| 2026-05-07 20:05 | 44.25866 | -67.35673 | 34737 ft | 552 kts | 57° |
| 2026-05-07 20:05 | 44.29910 | -67.26588 | 34743 ft | 550 kts | 57° |
| 2026-05-07 20:06 | 44.33948 | -67.17487 | 34722 ft | 550 kts | 57° |
| 2026-05-07 20:06 | 44.37960 | -67.08409 | 34717 ft | 549 kts | 57° |
| 2026-05-07 20:07 | 44.41919 | -66.99354 | 34718 ft | 548 kts | 60° |
| 2026-05-07 20:07 | 44.45425 | -66.89895 | 34740 ft | 547 kts | 63° |
| 2026-05-07 20:08 | 44.48813 | -66.80342 | 34709 ft | 547 kts | 64° |
| 2026-05-07 20:08 | 44.52202 | -66.70785 | 34712 ft | 547 kts | 63° |
| 2026-05-07 20:09 | 44.55607 | -66.61238 | 34712 ft | 547 kts | 63° |
| 2026-05-07 20:10 | 44.60698 | -66.46972 | 34706 ft | 547 kts | 63° |
| 2026-05-07 20:10 | 44.64105 | -66.37386 | 34701 ft | 547 kts | 63° |
| 2026-05-07 20:11 | 44.67477 | -66.27842 | 34704 ft | 547 kts | 63° |
| 2026-05-07 20:11 | 44.70850 | -66.18266 | 34694 ft | 547 kts | 64° |
| 2026-05-07 20:12 | 44.74217 | -66.08667 | 34694 ft | 547 kts | 64° |
| 2026-05-07 20:12 | 44.77577 | -65.99063 | 34694 ft | 546 kts | 64° |
| 2026-05-07 20:13 | 44.80930 | -65.89449 | 34682 ft | 546 kts | 64° |
| 2026-05-07 20:13 | 44.84244 | -65.79903 | 34688 ft | 544 kts | 64° |
| 2026-05-07 20:14 | 44.87564 | -65.70311 | 34697 ft | 543 kts | 64° |
| 2026-05-07 20:14 | 44.90871 | -65.60726 | 34690 ft | 542 kts | 64° |
| 2026-05-07 20:15 | 44.94139 | -65.51213 | 34682 ft | 541 kts | 64° |
| 2026-05-07 20:15 | 44.97423 | -65.41624 | 34687 ft | 541 kts | 64° |
| 2026-05-07 20:16 | 45.00693 | -65.32042 | 34692 ft | 540 kts | 65° |
| 2026-05-07 20:16 | 45.03925 | -65.22531 | 34692 ft | 539 kts | 65° |
| 2026-05-07 20:17 | 45.07164 | -65.12961 | 34693 ft | 539 kts | 65° |
| 2026-05-07 20:17 | 45.10403 | -65.03370 | 34694 ft | 539 kts | 65° |
| 2026-05-07 20:18 | 45.13631 | -64.93773 | 34693 ft | 539 kts | 65° |
| 2026-05-07 20:18 | 45.16825 | -64.84235 | 34693 ft | 538 kts | 65° |
| 2026-05-07 20:19 | 45.20027 | -64.74645 | 34694 ft | 538 kts | 65° |
| 2026-05-07 20:19 | 45.23223 | -64.65041 | 34687 ft | 538 kts | 65° |
| 2026-05-07 20:20 | 45.26406 | -64.55425 | 34684 ft | 538 kts | 65° |
| 2026-05-07 20:20 | 45.29568 | -64.45860 | 34679 ft | 536 kts | 66° |
| 2026-05-07 20:21 | 45.32732 | -64.36254 | 34682 ft | 536 kts | 66° |
| 2026-05-07 20:21 | 45.35881 | -64.26645 | 34682 ft | 535 kts | 66° |
| 2026-05-07 20:22 | 45.39001 | -64.17092 | 34681 ft | 536 kts | 66° |
| 2026-05-07 20:22 | 45.42125 | -64.07482 | 34674 ft | 535 kts | 66° |
| 2026-05-07 20:23 | 45.45250 | -63.97851 | 34668 ft | 534 kts | 66° |
| 2026-05-07 20:23 | 45.48360 | -63.88238 | 34676 ft | 534 kts | 66° |
| 2026-05-07 20:24 | 45.51451 | -63.78623 | 34675 ft | 533 kts | 66° |
| 2026-05-07 20:24 | 45.54533 | -63.69001 | 34678 ft | 533 kts | 66° |
| 2026-05-07 20:25 | 45.57617 | -63.59365 | 34668 ft | 533 kts | 66° |
| 2026-05-07 20:25 | 45.60661 | -63.49785 | 34676 ft | 534 kts | 66° |
| 2026-05-07 20:26 | 45.63735 | -63.40086 | 34678 ft | 536 kts | 66° |
| 2026-05-07 20:26 | 45.66820 | -63.30334 | 34669 ft | 538 kts | 67° |
| 2026-05-07 20:27 | 45.69882 | -63.20602 | 34665 ft | 539 kts | 67° |
| 2026-05-07 20:27 | 45.72958 | -63.10789 | 34664 ft | 540 kts | 67° |
| 2026-05-07 20:28 | 45.76033 | -63.00944 | 34667 ft | 540 kts | 67° |
| 2026-05-07 20:28 | 45.79080 | -62.91150 | 34662 ft | 540 kts | 67° |
| 2026-05-07 20:29 | 45.82138 | -62.81283 | 34665 ft | 540 kts | 67° |
| 2026-05-07 20:29 | 45.85181 | -62.71424 | 34665 ft | 540 kts | 67° |
| 2026-05-07 20:30 | 45.88203 | -62.61596 | 34666 ft | 540 kts | 68° |
| 2026-05-07 20:30 | 45.91232 | -62.51710 | 34666 ft | 540 kts | 68° |
| 2026-05-07 20:31 | 45.94253 | -62.41811 | 34666 ft | 541 kts | 68° |
| 2026-05-07 20:31 | 45.97265 | -62.31895 | 34665 ft | 541 kts | 68° |
| 2026-05-07 20:32 | 46.00259 | -62.22015 | 34668 ft | 542 kts | 68° |
| 2026-05-07 20:32 | 46.03262 | -62.12051 | 34664 ft | 542 kts | 68° |
| 2026-05-07 20:33 | 46.06253 | -62.02090 | 34665 ft | 541 kts | 68° |
| 2026-05-07 20:33 | 46.09214 | -61.92192 | 34666 ft | 541 kts | 68° |
| 2026-05-07 20:34 | 46.12190 | -61.82204 | 34665 ft | 541 kts | 68° |
| 2026-05-07 20:34 | 46.15155 | -61.72212 | 34666 ft | 541 kts | 69° |
| 2026-05-07 20:35 | 46.18103 | -61.62232 | 34673 ft | 540 kts | 69° |
| 2026-05-07 20:35 | 46.21028 | -61.52301 | 34666 ft | 539 kts | 69° |
| 2026-05-07 20:36 | 46.23954 | -61.42328 | 34665 ft | 538 kts | 69° |
| 2026-05-07 20:36 | 46.26864 | -61.32375 | 34665 ft | 537 kts | 69° |
| 2026-05-07 20:37 | 46.29751 | -61.22441 | 34683 ft | 535 kts | 69° |
| 2026-05-07 20:37 | 46.32627 | -61.12507 | 34691 ft | 534 kts | 69° |
| 2026-05-07 20:38 | 46.35471 | -61.02648 | 34698 ft | 533 kts | 69° |
| 2026-05-07 20:38 | 46.38320 | -60.92731 | 34701 ft | 531 kts | 69° |
| 2026-05-07 20:39 | 46.41147 | -60.82845 | 34701 ft | 530 kts | 69° |
| 2026-05-07 20:39 | 46.43971 | -60.72955 | 34714 ft | 529 kts | 69° |
| 2026-05-07 20:40 | 46.46759 | -60.63137 | 34715 ft | 530 kts | 69° |
| 2026-05-07 20:40 | 46.49554 | -60.53251 | 34730 ft | 527 kts | 69° |
| 2026-05-07 20:41 | 46.52320 | -60.43428 | 34717 ft | 522 kts | 69° |
| 2026-05-07 20:41 | 46.55034 | -60.33750 | 34742 ft | 517 kts | 69° |
| 2026-05-07 20:42 | 46.57732 | -60.24081 | 34737 ft | 515 kts | 69° |
| 2026-05-07 20:42 | 46.60422 | -60.14413 | 34732 ft | 515 kts | 69° |
| 2026-05-07 20:43 | 46.63092 | -60.04784 | 34733 ft | 516 kts | 69° |
| 2026-05-07 20:43 | 46.65779 | -59.95052 | 34738 ft | 518 kts | 69° |
| 2026-05-07 20:44 | 46.68462 | -59.85296 | 34743 ft | 519 kts | 69° |
| 2026-05-07 20:44 | 46.71142 | -59.75510 | 34745 ft | 520 kts | 69° |
| 2026-05-07 20:45 | 46.73799 | -59.65747 | 34736 ft | 521 kts | 69° |
| 2026-05-07 20:45 | 46.76468 | -59.55914 | 34743 ft | 521 kts | 69° |
| 2026-05-07 20:46 | 46.79115 | -59.46125 | 34736 ft | 520 kts | 69° |
| 2026-05-07 20:46 | 46.81769 | -59.36272 | 34738 ft | 520 kts | 70° |
| 2026-05-07 20:47 | 46.84392 | -59.26489 | 34748 ft | 519 kts | 70° |
| 2026-05-07 20:47 | 46.87018 | -59.16651 | 34755 ft | 519 kts | 70° |
| 2026-05-07 20:48 | 46.89636 | -59.06807 | 34759 ft | 519 kts | 70° |
| 2026-05-07 20:48 | 46.92230 | -58.97018 | 34760 ft | 519 kts | 70° |
| 2026-05-07 20:49 | 46.94831 | -58.87150 | 34769 ft | 519 kts | 70° |
| 2026-05-07 20:49 | 46.97426 | -58.77270 | 34768 ft | 519 kts | 70° |
| 2026-05-07 20:50 | 46.99994 | -58.67440 | 34773 ft | 519 kts | 70° |
| 2026-05-07 20:50 | 47.02571 | -58.57550 | 34781 ft | 520 kts | 70° |
| 2026-05-07 20:51 | 47.05142 | -58.47632 | 34786 ft | 520 kts | 70° |
| 2026-05-07 20:51 | 47.07703 | -58.37715 | 34790 ft | 520 kts | 70° |
| 2026-05-07 20:52 | 47.10258 | -58.27770 | 34805 ft | 520 kts | 70° |
| 2026-05-07 20:52 | 47.12371 | -58.19511 | 34806 ft | 520 kts | 70° |
| 2026-05-07 20:53 | 47.15322 | -58.07928 | 34807 ft | 521 kts | 70° |
| 2026-05-07 20:53 | 47.17853 | -57.97957 | 34814 ft | 521 kts | 70° |
| 2026-05-07 20:54 | 47.19963 | -57.89602 | 34835 ft | 520 kts | 70° |
| 2026-05-07 20:54 | 47.22467 | -57.79658 | 34823 ft | 519 kts | 70° |
| 2026-05-07 20:55 | 47.24968 | -57.69677 | 34833 ft | 518 kts | 70° |
| 2026-05-07 20:55 | 47.27435 | -57.59782 | 34837 ft | 517 kts | 70° |
| 2026-05-07 20:56 | 47.29907 | -57.49833 | 34844 ft | 516 kts | 70° |
| 2026-05-07 20:56 | 47.32374 | -57.39862 | 34849 ft | 515 kts | 70° |
| 2026-05-07 20:57 | 47.34818 | -57.29931 | 34869 ft | 514 kts | 70° |
| 2026-05-07 20:57 | 47.37233 | -57.20071 | 34882 ft | 514 kts | 70° |
| 2026-05-07 20:58 | 47.39656 | -57.10130 | 34880 ft | 514 kts | 71° |
| 2026-05-07 20:58 | 47.42069 | -57.00205 | 34882 ft | 513 kts | 71° |
| 2026-05-07 20:59 | 47.44459 | -56.90336 | 34883 ft | 512 kts | 71° |
| 2026-05-07 20:59 | 47.46847 | -56.80406 | 34891 ft | 511 kts | 71° |
| 2026-05-07 21:00 | 47.49220 | -56.70505 | 34889 ft | 510 kts | 71° |
| 2026-05-07 21:00 | 47.51583 | -56.60588 | 34889 ft | 509 kts | 71° |
| 2026-05-07 21:01 | 47.53911 | -56.50797 | 34889 ft | 507 kts | 72° |
| 2026-05-07 21:01 | 47.56243 | -56.40931 | 34887 ft | 505 kts | 72° |
| 2026-05-07 21:02 | 47.58553 | -56.31123 | 34889 ft | 503 kts | 72° |
| 2026-05-07 21:02 | 47.60838 | -56.21378 | 34890 ft | 502 kts | 72° |
| 2026-05-07 21:03 | 47.63121 | -56.11585 | 34890 ft | 501 kts | 72° |
| 2026-05-07 21:03 | 47.65373 | -56.01890 | 34912 ft | 500 kts | 72° |
| 2026-05-07 21:04 | 47.67633 | -55.92104 | 34919 ft | 500 kts | 72° |
| 2026-05-07 21:04 | 47.69884 | -55.82315 | 34918 ft | 500 kts | 73° |
| 2026-05-07 21:05 | 47.72113 | -55.72593 | 34915 ft | 500 kts | 73° |
| 2026-05-07 21:05 | 47.74350 | -55.62792 | 34918 ft | 501 kts | 73° |
| 2026-05-07 21:06 | 47.76579 | -55.52966 | 34916 ft | 501 kts | 73° |
| 2026-05-07 21:06 | 47.78803 | -55.43122 | 34926 ft | 501 kts | 73° |
| 2026-05-07 21:07 | 47.81002 | -55.33354 | 34926 ft | 501 kts | 73° |
| 2026-05-07 21:07 | 47.83205 | -55.23509 | 34925 ft | 501 kts | 73° |
| 2026-05-07 21:08 | 47.85402 | -55.13644 | 34927 ft | 501 kts | 73° |
| 2026-05-07 21:08 | 47.87590 | -55.03776 | 34933 ft | 501 kts | 73° |
| 2026-05-07 21:09 | 47.89757 | -54.93961 | 34934 ft | 502 kts | 73° |
| 2026-05-07 21:09 | 47.91931 | -54.84068 | 34935 ft | 501 kts | 73° |
| 2026-05-07 21:10 | 47.94093 | -54.74169 | 34940 ft | 501 kts | 73° |
| 2026-05-07 21:10 | 47.96244 | -54.64288 | 34945 ft | 500 kts | 73° |
| 2026-05-07 21:11 | 47.98395 | -54.54370 | 34929 ft | 503 kts | 72° |
| 2026-05-07 21:11 | 48.01644 | -54.39278 | 34960 ft | 515 kts | 72° |
| 2026-05-07 21:12 | 48.03818 | -54.29112 | 34949 ft | 515 kts | 72° |
| 2026-05-07 21:12 | 48.05993 | -54.18895 | 34950 ft | 515 kts | 72° |
| 2026-05-07 21:13 | 48.08160 | -54.08681 | 34963 ft | 514 kts | 72° |
| 2026-05-07 21:13 | 48.10304 | -53.98501 | 34959 ft | 513 kts | 73° |
| 2026-05-07 21:14 | 48.12424 | -53.88363 | 34966 ft | 511 kts | 73° |
| 2026-05-07 21:14 | 48.14544 | -53.78194 | 34969 ft | 510 kts | 73° |
| 2026-05-07 21:15 | 48.16655 | -53.68050 | 34976 ft | 510 kts | 73° |
| 2026-05-07 21:15 | 48.18740 | -53.57969 | 34979 ft | 510 kts | 73° |
| 2026-05-07 21:16 | 48.20827 | -53.47793 | 34981 ft | 509 kts | 73° |
| 2026-05-07 21:16 | 48.22900 | -53.37630 | 34980 ft | 509 kts | 73° |
| 2026-05-07 21:17 | 48.24960 | -53.27530 | 34992 ft | 509 kts | 73° |
| 2026-05-07 21:17 | 48.27020 | -53.17350 | 34989 ft | 508 kts | 73° |
| 2026-05-07 21:18 | 48.29065 | -53.07183 | 35297 ft | 508 kts | 73° |
| 2026-05-07 21:18 | 48.30082 | -53.02117 | 35763 ft | 504 kts | 74° |
| 2026-05-07 21:18 | 48.31087 | -52.97090 | 36241 ft | 500 kts | 74° |
| 2026-05-07 21:19 | 48.32085 | -52.92091 | 36653 ft | 498 kts | 74° |
| 2026-05-07 21:19 | 48.33075 | -52.87117 | 37046 ft | 495 kts | 74° |
| 2026-05-07 21:19 | 48.35018 | -52.77315 | 37015 ft | 486 kts | 75° |
| 2026-05-07 21:20 | 48.36936 | -52.67603 | 37016 ft | 484 kts | 75° |
| 2026-05-07 21:20 | 48.38845 | -52.57862 | 37022 ft | 485 kts | 75° |
| 2026-05-07 21:21 | 48.40750 | -52.48099 | 37021 ft | 486 kts | 75° |
| 2026-05-07 21:21 | 48.42636 | -52.38398 | 37017 ft | 486 kts | 75° |
| 2026-05-07 21:22 | 48.44528 | -52.28601 | 37020 ft | 486 kts | 75° |
| 2026-05-07 21:22 | 48.46411 | -52.18803 | 37017 ft | 486 kts | 75° |
| 2026-05-07 21:23 | 48.48287 | -52.09008 | 37019 ft | 486 kts | 75° |
| 2026-05-07 21:23 | 48.50176 | -51.99288 | 37007 ft | 485 kts | 72° |
| 2026-05-07 21:24 | 48.52590 | -51.89772 | 37013 ft | 485 kts | 69° |
| 2026-05-07 21:24 | 48.55080 | -51.80360 | 37008 ft | 485 kts | 69° |
| 2026-05-07 21:25 | 48.57556 | -51.70881 | 37000 ft | 485 kts | 69° |
| 2026-05-07 21:25 | 48.60008 | -51.61379 | 36997 ft | 484 kts | 70° |
| 2026-05-07 21:26 | 48.62426 | -51.51938 | 37001 ft | 484 kts | 70° |
| 2026-05-07 21:26 | 48.64853 | -51.42426 | 37000 ft | 485 kts | 70° |
| 2026-05-07 21:27 | 48.67275 | -51.32888 | 37000 ft | 484 kts | 70° |
| 2026-05-07 21:27 | 48.69674 | -51.23412 | 37001 ft | 485 kts | 70° |
| 2026-05-07 21:28 | 48.72088 | -51.13848 | 37001 ft | 485 kts | 70° |
| 2026-05-07 21:28 | 48.74489 | -51.04276 | 37000 ft | 486 kts | 70° |
| 2026-05-07 21:29 | 48.76882 | -50.94690 | 36999 ft | 486 kts | 70° |
| 2026-05-07 21:29 | 48.79257 | -50.85152 | 37000 ft | 486 kts | 70° |
| 2026-05-07 21:30 | 48.81641 | -50.75537 | 37002 ft | 486 kts | 70° |
| 2026-05-07 21:30 | 48.84011 | -50.65921 | 36998 ft | 485 kts | 70° |
| 2026-05-07 21:31 | 48.86361 | -50.56359 | 37000 ft | 485 kts | 70° |
| 2026-05-07 21:31 | 48.88720 | -50.46716 | 37001 ft | 485 kts | 70° |
| 2026-05-07 21:32 | 48.91049 | -50.37157 | 36999 ft | 485 kts | 70° |
| 2026-05-07 21:32 | 48.93379 | -50.27538 | 37000 ft | 485 kts | 70° |
| 2026-05-07 21:33 | 48.94935 | -50.21093 | 37000 ft | 485 kts | 71° |
| 2026-05-07 21:33 | 48.97896 | -50.08794 | 37000 ft | 484 kts | 71° |
| 2026-05-07 21:34 | 49.00206 | -49.99152 | 36999 ft | 484 kts | 70° |
| 2026-05-07 21:34 | 49.02596 | -49.89537 | 37001 ft | 484 kts | 69° |
| 2026-05-07 21:35 | 49.05010 | -49.80018 | 36994 ft | 484 kts | 69° |
| 2026-05-07 21:35 | 49.07427 | -49.70423 | 36989 ft | 484 kts | 70° |
| 2026-05-07 21:36 | 49.09826 | -49.60814 | 36991 ft | 484 kts | 70° |
| 2026-05-07 21:36 | 49.12207 | -49.51205 | 36985 ft | 484 kts | 70° |
| 2026-05-07 21:37 | 49.14566 | -49.41637 | 36982 ft | 485 kts | 70° |
| 2026-05-07 21:37 | 49.16942 | -49.31966 | 36981 ft | 484 kts | 70° |
| 2026-05-07 21:38 | 49.19306 | -49.22318 | 36980 ft | 484 kts | 70° |
| 2026-05-07 21:38 | 49.21662 | -49.12657 | 36979 ft | 484 kts | 70° |
| 2026-05-07 21:39 | 49.23990 | -49.03050 | 36983 ft | 484 kts | 70° |
| 2026-05-07 21:39 | 49.26333 | -48.93347 | 36982 ft | 484 kts | 70° |
| 2026-05-07 21:40 | 49.28665 | -48.83655 | 36981 ft | 484 kts | 70° |
| 2026-05-07 21:40 | 49.30974 | -48.74017 | 36979 ft | 485 kts | 70° |
| 2026-05-07 21:41 | 49.33288 | -48.64306 | 36983 ft | 485 kts | 70° |
| 2026-05-07 21:41 | 49.35596 | -48.54580 | 36980 ft | 484 kts | 70° |
| 2026-05-07 21:42 | 49.37877 | -48.44910 | 36982 ft | 484 kts | 70° |
| 2026-05-07 21:42 | 49.40170 | -48.35166 | 36971 ft | 484 kts | 70° |
| 2026-05-07 21:43 | 49.42455 | -48.25413 | 36973 ft | 484 kts | 70° |
| 2026-05-07 21:43 | 49.44716 | -48.15716 | 36971 ft | 485 kts | 70° |
| 2026-05-07 21:44 | 49.46984 | -48.05930 | 36974 ft | 485 kts | 71° |
| 2026-05-07 21:44 | 49.49244 | -47.96138 | 36973 ft | 485 kts | 70° |
| 2026-05-07 21:45 | 49.51485 | -47.86404 | 36972 ft | 485 kts | 70° |
| 2026-05-07 21:45 | 49.53730 | -47.76598 | 36974 ft | 485 kts | 71° |
| 2026-05-07 21:46 | 49.55965 | -47.66790 | 36973 ft | 485 kts | 71° |
| 2026-05-07 21:46 | 49.58176 | -47.57016 | 36972 ft | 485 kts | 71° |
| 2026-05-07 21:47 | 49.60397 | -47.47168 | 36973 ft | 485 kts | 71° |
| 2026-05-07 21:47 | 49.62609 | -47.37328 | 36974 ft | 484 kts | 71° |
| 2026-05-07 21:48 | 49.64794 | -47.27565 | 36972 ft | 484 kts | 71° |
| 2026-05-07 21:48 | 49.66981 | -47.17737 | 36972 ft | 483 kts | 71° |
| 2026-05-07 21:49 | 49.69156 | -47.07922 | 36971 ft | 482 kts | 71° |
| 2026-05-07 21:49 | 49.71304 | -46.98179 | 36974 ft | 482 kts | 71° |
| 2026-05-07 21:50 | 49.73455 | -46.88381 | 36971 ft | 481 kts | 71° |
| 2026-05-07 21:50 | 49.75596 | -46.78573 | 36972 ft | 481 kts | 71° |
| 2026-05-07 21:51 | 49.77729 | -46.68762 | 36972 ft | 480 kts | 71° |
| 2026-05-07 21:51 | 49.79849 | -46.58953 | 36972 ft | 480 kts | 71° |
| 2026-05-07 21:52 | 49.81945 | -46.49223 | 36973 ft | 479 kts | 71° |
| 2026-05-07 21:52 | 49.84043 | -46.39426 | 36971 ft | 479 kts | 71° |
| 2026-05-07 21:53 | 49.86137 | -46.29603 | 36971 ft | 479 kts | 71° |
| 2026-05-07 21:53 | 49.88220 | -46.19791 | 36972 ft | 478 kts | 71° |
| 2026-05-07 21:54 | 49.90292 | -46.09970 | 36973 ft | 479 kts | 71° |
| 2026-05-07 21:54 | 49.92342 | -46.00217 | 36974 ft | 479 kts | 71° |
| 2026-05-07 21:55 | 49.94406 | -45.90351 | 36967 ft | 480 kts | 71° |
| 2026-05-07 21:55 | 49.96464 | -45.80465 | 36963 ft | 481 kts | 71° |
| 2026-05-07 21:56 | 49.98499 | -45.70635 | 36964 ft | 481 kts | 71° |
| 2026-05-07 21:56 | 50.00539 | -45.60734 | 36962 ft | 480 kts | 71° |
| 2026-05-07 21:57 | 50.02572 | -45.50818 | 36964 ft | 480 kts | 71° |
| 2026-05-07 21:57 | 50.04252 | -45.42585 | 36963 ft | 480 kts | 71° |
| 2026-05-07 21:58 | 50.06596 | -45.31049 | 36957 ft | 480 kts | 72° |
| 2026-05-07 21:58 | 50.08261 | -45.22806 | 36997 ft | 479 kts | 72° |
| 2026-05-07 21:59 | 50.10249 | -45.12914 | 37067 ft | 478 kts | 72° |
| 2026-05-07 21:59 | 50.12222 | -45.03058 | 37074 ft | 479 kts | 72° |
| 2026-05-07 22:00 | 50.14201 | -44.93122 | 37074 ft | 479 kts | 72° |
| 2026-05-07 22:00 | 50.16159 | -44.83239 | 37077 ft | 480 kts | 72° |
| 2026-05-07 22:01 | 50.18118 | -44.73293 | 37074 ft | 479 kts | 72° |
| 2026-05-07 22:01 | 50.20069 | -44.63356 | 37075 ft | 479 kts | 72° |
| 2026-05-07 22:02 | 50.22008 | -44.53404 | 37074 ft | 478 kts | 72° |
| 2026-05-07 22:02 | 50.23937 | -44.43464 | 37074 ft | 477 kts | 72° |
| 2026-05-07 22:03 | 50.25835 | -44.33610 | 37075 ft | 476 kts | 72° |
| 2026-05-07 22:03 | 50.27742 | -44.23696 | 37076 ft | 475 kts | 72° |
| 2026-05-07 22:04 | 50.29634 | -44.13795 | 37084 ft | 475 kts | 72° |
| 2026-05-07 22:04 | 50.31515 | -44.03896 | 37084 ft | 474 kts | 72° |
| 2026-05-07 22:05 | 50.33392 | -43.93967 | 37083 ft | 474 kts | 72° |
| 2026-05-07 22:05 | 50.35255 | -43.84063 | 37081 ft | 474 kts | 72° |
| 2026-05-07 22:06 | 50.37097 | -43.74213 | 37083 ft | 474 kts | 72° |
| 2026-05-07 22:06 | 50.38941 | -43.64299 | 37083 ft | 475 kts | 72° |
| 2026-05-07 22:07 | 50.40784 | -43.54334 | 37083 ft | 475 kts | 72° |
| 2026-05-07 22:07 | 50.42607 | -43.44430 | 37084 ft | 476 kts | 72° |
| 2026-05-07 22:08 | 50.44434 | -43.34442 | 37084 ft | 476 kts | 72° |
| 2026-05-07 22:08 | 50.46256 | -43.24438 | 37083 ft | 477 kts | 72° |
| 2026-05-07 22:09 | 50.48072 | -43.14411 | 37083 ft | 477 kts | 72° |
| 2026-05-07 22:09 | 50.49869 | -43.04437 | 37102 ft | 477 kts | 73° |
| 2026-05-07 22:10 | 50.51671 | -42.94380 | 37082 ft | 477 kts | 73° |
| 2026-05-07 22:10 | 50.53459 | -42.84326 | 37083 ft | 477 kts | 73° |
| 2026-05-07 22:11 | 50.55228 | -42.74316 | 37082 ft | 477 kts | 73° |
| 2026-05-07 22:11 | 50.56999 | -42.64272 | 37084 ft | 476 kts | 73° |
| 2026-05-07 22:12 | 50.58765 | -42.54199 | 37084 ft | 476 kts | 73° |
| 2026-05-07 22:12 | 50.60504 | -42.44204 | 37093 ft | 476 kts | 73° |
| 2026-05-07 22:13 | 50.62247 | -42.34136 | 37098 ft | 476 kts | 73° |
| 2026-05-07 22:13 | 50.63982 | -42.24061 | 37084 ft | 475 kts | 73° |
| 2026-05-07 22:14 | 50.65702 | -42.14004 | 37099 ft | 475 kts | 73° |
| 2026-05-07 22:14 | 50.67415 | -42.03934 | 37092 ft | 475 kts | 73° |
| 2026-05-07 22:15 | 50.69107 | -41.93933 | 37085 ft | 474 kts | 73° |
| 2026-05-07 22:15 | 50.70800 | -41.83866 | 37084 ft | 474 kts | 73° |
| 2026-05-07 22:16 | 50.72487 | -41.73791 | 37085 ft | 474 kts | 73° |
| 2026-05-07 22:16 | 50.74164 | -41.63704 | 37083 ft | 474 kts | 73° |
| 2026-05-07 22:17 | 50.75819 | -41.53676 | 37098 ft | 475 kts | 73° |
| 2026-05-07 22:17 | 50.77479 | -41.43557 | 37097 ft | 476 kts | 73° |
| 2026-05-07 22:18 | 50.79955 | -41.28382 | 37092 ft | 477 kts | 73° |
| 2026-05-07 22:19 | 50.81606 | -41.18193 | 37097 ft | 477 kts | 73° |
| 2026-05-07 22:19 | 50.83245 | -41.08007 | 37102 ft | 478 kts | 73° |
| 2026-05-07 22:20 | 50.84869 | -40.97837 | 37104 ft | 479 kts | 73° |
| 2026-05-07 22:20 | 50.86494 | -40.87609 | 37109 ft | 479 kts | 73° |
| 2026-05-07 22:21 | 50.88107 | -40.77379 | 37108 ft | 479 kts | 73° |
| 2026-05-07 22:21 | 50.89717 | -40.67130 | 37095 ft | 479 kts | 73° |
| 2026-05-07 22:22 | 50.91314 | -40.56887 | 37098 ft | 478 kts | 73° |
| 2026-05-07 22:22 | 50.92891 | -40.46702 | 37100 ft | 478 kts | 73° |
| 2026-05-07 22:23 | 50.94471 | -40.36438 | 37100 ft | 478 kts | 73° |
| 2026-05-07 22:23 | 50.96041 | -40.26180 | 37106 ft | 478 kts | 74° |
| 2026-05-07 22:24 | 50.97602 | -40.15908 | 37102 ft | 479 kts | 74° |
| 2026-05-07 22:24 | 50.99145 | -40.05700 | 37096 ft | 479 kts | 74° |
| 2026-05-07 22:25 | 51.00684 | -39.95393 | 37105 ft | 479 kts | 74° |
| 2026-05-07 22:25 | 51.02176 | -39.85068 | 37098 ft | 479 kts | 74° |
| 2026-05-07 22:26 | 51.03642 | -39.74807 | 37109 ft | 479 kts | 74° |
| 2026-05-07 22:26 | 51.05112 | -39.64466 | 37106 ft | 479 kts | 74° |
| 2026-05-07 22:27 | 51.06577 | -39.54119 | 37097 ft | 479 kts | 74° |
| 2026-05-07 22:27 | 51.08034 | -39.43763 | 37107 ft | 480 kts | 74° |
| 2026-05-07 22:28 | 51.09484 | -39.33388 | 37100 ft | 480 kts | 74° |
| 2026-05-07 22:28 | 51.10917 | -39.23063 | 37104 ft | 480 kts | 74° |
| 2026-05-07 22:29 | 51.12349 | -39.12679 | 37110 ft | 479 kts | 75° |
| 2026-05-07 22:29 | 51.13764 | -39.02333 | 37110 ft | 480 kts | 75° |
| 2026-05-07 22:30 | 51.15177 | -38.91918 | 37112 ft | 480 kts | 75° |
| 2026-05-07 22:30 | 51.16588 | -38.81499 | 37114 ft | 480 kts | 75° |
| 2026-05-07 22:31 | 51.17975 | -38.71127 | 37113 ft | 480 kts | 75° |
| 2026-05-07 22:31 | 51.19348 | -38.60714 | 37111 ft | 480 kts | 75° |
| 2026-05-07 22:32 | 51.20728 | -38.50337 | 37105 ft | 477 kts | 75° |
| 2026-05-07 22:32 | 51.22135 | -38.39936 | 37114 ft | 481 kts | 75° |
| 2026-05-07 22:33 | 51.23473 | -38.29520 | 37117 ft | 483 kts | 75° |
| 2026-05-07 22:33 | 51.24807 | -38.19010 | 37115 ft | 484 kts | 75° |
| 2026-05-07 22:34 | 51.26149 | -38.08473 | 37106 ft | 484 kts | 75° |
| 2026-05-07 22:34 | 51.27490 | -37.97934 | 37109 ft | 484 kts | 75° |
| 2026-05-07 22:35 | 51.28824 | -37.87394 | 37115 ft | 484 kts | 75° |
| 2026-05-07 22:35 | 51.30143 | -37.76849 | 37112 ft | 483 kts | 75° |
| 2026-05-07 22:36 | 51.31445 | -37.66374 | 37111 ft | 483 kts | 75° |
| 2026-05-07 22:36 | 51.32745 | -37.55812 | 37109 ft | 483 kts | 75° |
| 2026-05-07 22:37 | 51.34036 | -37.45267 | 37108 ft | 483 kts | 75° |
| 2026-05-07 22:37 | 51.35309 | -37.34777 | 37110 ft | 482 kts | 75° |
| 2026-05-07 22:38 | 51.36575 | -37.24252 | 37112 ft | 481 kts | 75° |
| 2026-05-07 22:38 | 51.37834 | -37.13716 | 37113 ft | 481 kts | 75° |
| 2026-05-07 22:39 | 51.39073 | -37.03253 | 37108 ft | 481 kts | 75° |
| 2026-05-07 22:39 | 51.40309 | -36.92737 | 37121 ft | 480 kts | 75° |
| 2026-05-07 22:40 | 51.41537 | -36.82225 | 37118 ft | 480 kts | 75° |
| 2026-05-07 22:40 | 51.42756 | -36.71676 | 37129 ft | 480 kts | 75° |
| 2026-05-07 22:41 | 51.43963 | -36.61132 | 37131 ft | 481 kts | 75° |
| 2026-05-07 22:41 | 51.45165 | -36.50557 | 37130 ft | 482 kts | 75° |
| 2026-05-07 22:42 | 51.46351 | -36.40025 | 37131 ft | 482 kts | 75° |
| 2026-05-07 22:42 | 51.47539 | -36.29407 | 37137 ft | 482 kts | 75° |
| 2026-05-07 22:43 | 51.48706 | -36.18869 | 37141 ft | 483 kts | 76° |
| 2026-05-07 22:43 | 51.49873 | -36.08242 | 37137 ft | 483 kts | 76° |
| 2026-05-07 22:44 | 51.51034 | -35.97601 | 37139 ft | 483 kts | 76° |
| 2026-05-07 22:44 | 51.52181 | -35.86963 | 37138 ft | 483 kts | 76° |
| 2026-05-07 22:45 | 51.53314 | -35.76375 | 37138 ft | 483 kts | 76° |
| 2026-05-07 22:45 | 51.54251 | -35.67529 | 37138 ft | 482 kts | 76° |
| 2026-05-07 22:46 | 51.55552 | -35.55167 | 37139 ft | 482 kts | 76° |
| 2026-05-07 22:46 | 51.56473 | -35.46325 | 37138 ft | 482 kts | 76° |
| 2026-05-07 22:47 | 51.57572 | -35.35681 | 37139 ft | 482 kts | 76° |
| 2026-05-07 22:47 | 51.58662 | -35.25035 | 37137 ft | 481 kts | 76° |
| 2026-05-07 22:48 | 51.59739 | -35.14415 | 37139 ft | 481 kts | 76° |
| 2026-05-07 22:48 | 51.60799 | -35.03853 | 37140 ft | 481 kts | 76° |
| 2026-05-07 22:49 | 51.61858 | -34.93215 | 37131 ft | 481 kts | 76° |
| 2026-05-07 22:49 | 51.62909 | -34.82565 | 37119 ft | 481 kts | 76° |
| 2026-05-07 22:50 | 51.63947 | -34.71926 | 37118 ft | 481 kts | 76° |
| 2026-05-07 22:50 | 51.64976 | -34.61288 | 37122 ft | 481 kts | 76° |
| 2026-05-07 22:51 | 51.65988 | -34.50708 | 37121 ft | 481 kts | 76° |
| 2026-05-07 22:51 | 51.67002 | -34.40022 | 37119 ft | 481 kts | 76° |
| 2026-05-07 22:52 | 51.68005 | -34.29337 | 37119 ft | 481 kts | 76° |
| 2026-05-07 22:52 | 51.68990 | -34.18716 | 37117 ft | 482 kts | 76° |
| 2026-05-07 22:53 | 51.69978 | -34.07994 | 37120 ft | 483 kts | 77° |
| 2026-05-07 22:53 | 51.70954 | -33.97264 | 37132 ft | 483 kts | 77° |
| 2026-05-07 22:54 | 51.71920 | -33.86528 | 37128 ft | 483 kts | 77° |
| 2026-05-07 22:54 | 51.72871 | -33.75863 | 37129 ft | 483 kts | 77° |
| 2026-05-07 22:55 | 51.73816 | -33.65124 | 37129 ft | 483 kts | 77° |
| 2026-05-07 22:55 | 51.74756 | -33.54374 | 37128 ft | 483 kts | 77° |
| 2026-05-07 22:56 | 51.75680 | -33.43636 | 37131 ft | 483 kts | 77° |
| 2026-05-07 22:56 | 51.76590 | -33.32966 | 37130 ft | 483 kts | 77° |
| 2026-05-07 22:57 | 51.77498 | -33.22233 | 37130 ft | 482 kts | 77° |
| 2026-05-07 22:57 | 51.78393 | -33.11480 | 37128 ft | 481 kts | 77° |
| 2026-05-07 22:58 | 51.79277 | -33.00762 | 37129 ft | 481 kts | 77° |
| 2026-05-07 22:58 | 51.80144 | -32.90111 | 37128 ft | 481 kts | 78° |
| 2026-05-07 22:59 | 51.81011 | -32.79367 | 37129 ft | 481 kts | 78° |
| 2026-05-07 22:59 | 51.81867 | -32.68614 | 37130 ft | 482 kts | 78° |
| 2026-05-07 23:00 | 51.82715 | -32.57847 | 37129 ft | 482 kts | 78° |
| 2026-05-07 23:00 | 51.83548 | -32.47151 | 37131 ft | 483 kts | 78° |
| 2026-05-07 23:01 | 51.84377 | -32.36349 | 37128 ft | 483 kts | 78° |
| 2026-05-07 23:01 | 51.85192 | -32.25610 | 37130 ft | 483 kts | 78° |
| 2026-05-07 23:02 | 51.86001 | -32.14819 | 37127 ft | 483 kts | 78° |
| 2026-05-07 23:02 | 51.86798 | -32.04008 | 37133 ft | 484 kts | 78° |
| 2026-05-07 23:03 | 51.87591 | -31.93179 | 37130 ft | 484 kts | 78° |
| 2026-05-07 23:03 | 51.88374 | -31.82349 | 37139 ft | 484 kts | 78° |
| 2026-05-07 23:04 | 51.89142 | -31.71580 | 37138 ft | 484 kts | 78° |
| 2026-05-07 23:04 | 51.89901 | -31.60726 | 37139 ft | 484 kts | 79° |
| 2026-05-07 23:05 | 51.90647 | -31.49932 | 37140 ft | 484 kts | 79° |
| 2026-05-07 23:05 | 51.91398 | -31.39069 | 37139 ft | 485 kts | 79° |
| 2026-05-07 23:06 | 51.92127 | -31.28280 | 37132 ft | 484 kts | 79° |
| 2026-05-07 23:06 | 51.92847 | -31.17420 | 37137 ft | 484 kts | 79° |
| 2026-05-07 23:07 | 51.93558 | -31.06529 | 37139 ft | 485 kts | 79° |
| 2026-05-07 23:07 | 51.94255 | -30.95706 | 37118 ft | 485 kts | 79° |
| 2026-05-07 23:08 | 51.94949 | -30.84796 | 37118 ft | 488 kts | 79° |
| 2026-05-07 23:08 | 51.95638 | -30.73837 | 37118 ft | 489 kts | 79° |
| 2026-05-07 23:09 | 51.96313 | -30.62908 | 37120 ft | 490 kts | 80° |
| 2026-05-07 23:09 | 51.96988 | -30.51875 | 37119 ft | 491 kts | 80° |
| 2026-05-07 23:10 | 51.97654 | -30.40845 | 37121 ft | 490 kts | 80° |
| 2026-05-07 23:10 | 51.98296 | -30.29822 | 37115 ft | 491 kts | 80° |
| 2026-05-07 23:11 | 51.98924 | -30.18857 | 37104 ft | 490 kts | 80° |
| 2026-05-07 23:11 | 51.99556 | -30.07841 | 37122 ft | 490 kts | 80° |
| 2026-05-07 23:12 | 52.00175 | -29.96807 | 37112 ft | 490 kts | 81° |
| 2026-05-07 23:12 | 52.00649 | -29.85753 | 37122 ft | 492 kts | 82° |
| 2026-05-07 23:13 | 52.01063 | -29.74715 | 37121 ft | 493 kts | 82° |
| 2026-05-07 23:13 | 52.01488 | -29.63538 | 37128 ft | 496 kts | 82° |
| 2026-05-07 23:14 | 52.01914 | -29.52364 | 37114 ft | 497 kts | 82° |
| 2026-05-07 23:14 | 52.02340 | -29.41248 | 37123 ft | 494 kts | 82° |
| 2026-05-07 23:15 | 52.02765 | -29.30152 | 37118 ft | 491 kts | 82° |
| 2026-05-07 23:15 | 52.03165 | -29.19074 | 37118 ft | 490 kts | 83° |
| 2026-05-07 23:16 | 52.03541 | -29.08026 | 37117 ft | 488 kts | 83° |
| 2026-05-07 23:16 | 52.03912 | -28.97051 | 37128 ft | 490 kts | 83° |
| 2026-05-07 23:17 | 52.04288 | -28.85995 | 37123 ft | 489 kts | 83° |
| 2026-05-07 23:17 | 52.04640 | -28.74921 | 37114 ft | 491 kts | 84° |
| 2026-05-07 23:18 | 52.04982 | -28.63874 | 37126 ft | 493 kts | 84° |
| 2026-05-07 23:18 | 52.05329 | -28.52725 | 37125 ft | 494 kts | 84° |
| 2026-05-07 23:19 | 52.05662 | -28.41574 | 37119 ft | 494 kts | 84° |
| 2026-05-07 23:19 | 52.05967 | -28.30408 | 37118 ft | 494 kts | 84° |
| 2026-05-07 23:20 | 52.06282 | -28.19261 | 37121 ft | 494 kts | 84° |
| 2026-05-07 23:20 | 52.06577 | -28.08071 | 37118 ft | 495 kts | 84° |
| 2026-05-07 23:21 | 52.06860 | -27.96970 | 37118 ft | 495 kts | 84° |
| 2026-05-07 23:21 | 52.07134 | -27.85771 | 37116 ft | 494 kts | 84° |
| 2026-05-07 23:22 | 52.07399 | -27.74589 | 37119 ft | 494 kts | 84° |
| 2026-05-07 23:22 | 52.07651 | -27.63495 | 37120 ft | 494 kts | 85° |
| 2026-05-07 23:23 | 52.07895 | -27.52328 | 37116 ft | 494 kts | 85° |
| 2026-05-07 23:23 | 52.08130 | -27.41154 | 37117 ft | 493 kts | 85° |
| 2026-05-07 23:24 | 52.08349 | -27.29977 | 37122 ft | 493 kts | 85° |
| 2026-05-07 23:24 | 52.08560 | -27.18890 | 37121 ft | 493 kts | 85° |
| 2026-05-07 23:25 | 52.08766 | -27.07732 | 37122 ft | 492 kts | 85° |
| 2026-05-07 23:25 | 52.08956 | -26.96594 | 37129 ft | 493 kts | 86° |
| 2026-05-07 23:26 | 52.09134 | -26.85491 | 37111 ft | 493 kts | 86° |
| 2026-05-07 23:26 | 52.09304 | -26.74314 | 37103 ft | 494 kts | 86° |
| 2026-05-07 23:27 | 52.09540 | -26.57532 | 37106 ft | 494 kts | 86° |
| 2026-05-07 23:27 | 52.09684 | -26.46412 | 37102 ft | 494 kts | 86° |
| 2026-05-07 23:28 | 52.09817 | -26.35233 | 37102 ft | 495 kts | 86° |
| 2026-05-07 23:28 | 52.09938 | -26.24012 | 37099 ft | 495 kts | 86° |
| 2026-05-07 23:29 | 52.10053 | -26.12866 | 37104 ft | 495 kts | 87° |
| 2026-05-07 23:29 | 52.10155 | -26.01645 | 37103 ft | 496 kts | 87° |
| 2026-05-07 23:30 | 52.10243 | -25.90434 | 37098 ft | 495 kts | 87° |
| 2026-05-07 23:30 | 52.10324 | -25.79226 | 37098 ft | 495 kts | 87° |
| 2026-05-07 23:31 | 52.10395 | -25.68092 | 37104 ft | 495 kts | 87° |
| 2026-05-07 23:31 | 52.10452 | -25.56894 | 37099 ft | 495 kts | 87° |
| 2026-05-07 23:32 | 52.10503 | -25.45690 | 37099 ft | 495 kts | 88° |
| 2026-05-07 23:32 | 52.10540 | -25.34487 | 37105 ft | 495 kts | 88° |
| 2026-05-07 23:33 | 52.10569 | -25.23278 | 37106 ft | 495 kts | 88° |
| 2026-05-07 23:33 | 52.10585 | -25.12150 | 37097 ft | 495 kts | 88° |
| 2026-05-07 23:34 | 52.10592 | -25.00951 | 37089 ft | 495 kts | 88° |
| 2026-05-07 23:34 | 52.10586 | -24.89753 | 37093 ft | 494 kts | 88° |
| 2026-05-07 23:35 | 52.10571 | -24.78568 | 37099 ft | 494 kts | 88° |
| 2026-05-07 23:35 | 52.10545 | -24.67444 | 37091 ft | 494 kts | 89° |
| 2026-05-07 23:36 | 52.10509 | -24.56250 | 37095 ft | 494 kts | 89° |
| 2026-05-07 23:36 | 52.10472 | -24.46884 | 37097 ft | 494 kts | 89° |
| 2026-05-07 23:37 | 52.10416 | -24.35764 | 37088 ft | 494 kts | 89° |
| 2026-05-07 23:37 | 52.10350 | -24.24571 | 37099 ft | 494 kts | 89° |
| 2026-05-07 23:38 | 52.10273 | -24.13375 | 37088 ft | 495 kts | 89° |
| 2026-05-07 23:38 | 52.10185 | -24.02179 | 37099 ft | 495 kts | 89° |
| 2026-05-07 23:39 | 52.10088 | -23.91051 | 37098 ft | 495 kts | 89° |
| 2026-05-07 23:39 | 52.09979 | -23.79843 | 37091 ft | 495 kts | 89° |
| 2026-05-07 23:40 | 52.09861 | -23.68633 | 37090 ft | 495 kts | 90° |
| 2026-05-07 23:40 | 52.09730 | -23.57432 | 37091 ft | 495 kts | 90° |
| 2026-05-07 23:41 | 52.09591 | -23.46298 | 37095 ft | 495 kts | 90° |
| 2026-05-07 23:41 | 52.09440 | -23.35113 | 37083 ft | 495 kts | 90° |
| 2026-05-07 23:42 | 52.09280 | -23.23914 | 37082 ft | 495 kts | 90° |
| 2026-05-07 23:42 | 52.09107 | -23.12717 | 37083 ft | 494 kts | 90° |
| 2026-05-07 23:43 | 52.08924 | -23.01582 | 37084 ft | 494 kts | 90° |
| 2026-05-07 23:43 | 52.08731 | -22.90411 | 37085 ft | 494 kts | 91° |
| 2026-05-07 23:44 | 52.08527 | -22.79221 | 37082 ft | 494 kts | 91° |
| 2026-05-07 23:44 | 52.08315 | -22.68113 | 37082 ft | 494 kts | 91° |
| 2026-05-07 23:45 | 52.08090 | -22.56928 | 37083 ft | 495 kts | 91° |
| 2026-05-07 23:45 | 52.07854 | -22.45729 | 37099 ft | 494 kts | 91° |
| 2026-05-07 23:46 | 52.07610 | -22.34617 | 37113 ft | 494 kts | 91° |
| 2026-05-07 23:46 | 52.07351 | -22.23418 | 37107 ft | 495 kts | 92° |
| 2026-05-07 23:47 | 52.07086 | -22.12237 | 37116 ft | 495 kts | 92° |
| 2026-05-07 23:47 | 52.06807 | -22.01063 | 37099 ft | 495 kts | 92° |
| 2026-05-07 23:48 | 52.06521 | -21.89936 | 37098 ft | 495 kts | 92° |
| 2026-05-07 23:48 | 52.06223 | -21.78742 | 37071 ft | 495 kts | 92° |
| 2026-05-07 23:49 | 52.05911 | -21.67522 | 37026 ft | 496 kts | 92° |
| 2026-05-07 23:49 | 52.05592 | -21.56399 | 37017 ft | 496 kts | 92° |
| 2026-05-07 23:50 | 52.05261 | -21.45196 | 37018 ft | 495 kts | 92° |
| 2026-05-07 23:50 | 52.04921 | -21.34022 | 37018 ft | 494 kts | 92° |
| 2026-05-07 23:51 | 52.04570 | -21.22932 | 37019 ft | 494 kts | 93° |
| 2026-05-07 23:51 | 52.04206 | -21.11754 | 37021 ft | 494 kts | 93° |
| 2026-05-07 23:52 | 52.03833 | -21.00609 | 37019 ft | 494 kts | 93° |
| 2026-05-07 23:52 | 52.03455 | -20.89514 | 37019 ft | 494 kts | 93° |
| 2026-05-07 23:53 | 52.03063 | -20.78357 | 37018 ft | 494 kts | 93° |
| 2026-05-07 23:53 | 52.02657 | -20.67203 | 37019 ft | 495 kts | 94° |
| 2026-05-07 23:54 | 52.02243 | -20.56050 | 37019 ft | 495 kts | 94° |
| 2026-05-07 23:54 | 52.01819 | -20.44942 | 37018 ft | 495 kts | 94° |
| 2026-05-07 23:55 | 52.01381 | -20.33761 | 37019 ft | 495 kts | 94° |
| 2026-05-07 23:55 | 52.00935 | -20.22573 | 37019 ft | 496 kts | 94° |
| 2026-05-07 23:56 | 52.00480 | -20.11445 | 37018 ft | 496 kts | 94° |
| 2026-05-07 23:56 | 52.00025 | -20.00262 | 37019 ft | 496 kts | 92° |
| 2026-05-07 23:57 | 52.00140 | -19.89072 | 37018 ft | 496 kts | 88° |
| 2026-05-07 23:57 | 52.00409 | -19.77888 | 37012 ft | 496 kts | 88° |
| 2026-05-07 23:58 | 52.00652 | -19.66703 | 37009 ft | 496 kts | 88° |
| 2026-05-07 23:58 | 52.00858 | -19.55571 | 37010 ft | 496 kts | 89° |
| 2026-05-07 23:59 | 52.01047 | -19.44360 | 37008 ft | 496 kts | 89° |
| 2026-05-07 23:59 | 52.01224 | -19.33155 | 37009 ft | 496 kts | 89° |
| 2026-05-08 00:00 | 52.01393 | -19.21963 | 37009 ft | 495 kts | 89° |
| 2026-05-08 00:00 | 52.01548 | -19.10839 | 37010 ft | 496 kts | 89° |
| 2026-05-08 00:01 | 52.01695 | -18.99630 | 37009 ft | 496 kts | 89° |
| 2026-05-08 00:01 | 52.01833 | -18.88418 | 37010 ft | 496 kts | 89° |
| 2026-05-08 00:02 | 52.01958 | -18.77202 | 37007 ft | 496 kts | 89° |
| 2026-05-08 00:02 | 52.02074 | -18.65995 | 37010 ft | 496 kts | 89° |
| 2026-05-08 00:03 | 52.02178 | -18.54787 | 37009 ft | 496 kts | 90° |
| 2026-05-08 00:03 | 52.02272 | -18.43623 | 37009 ft | 496 kts | 90° |
| 2026-05-08 00:04 | 52.02356 | -18.32395 | 37015 ft | 496 kts | 90° |
| 2026-05-08 00:04 | 52.02428 | -18.21169 | 37020 ft | 496 kts | 90° |
| 2026-05-08 00:05 | 52.02492 | -18.09950 | 37019 ft | 497 kts | 90° |
| 2026-05-08 00:05 | 52.02542 | -17.98792 | 37017 ft | 497 kts | 90° |
| 2026-05-08 00:06 | 52.02582 | -17.87553 | 37019 ft | 497 kts | 90° |
| 2026-05-08 00:06 | 52.02614 | -17.76366 | 37019 ft | 497 kts | 90° |
| 2026-05-08 00:07 | 52.02635 | -17.65125 | 37019 ft | 497 kts | 90° |
| 2026-05-08 00:07 | 52.02644 | -17.53894 | 37019 ft | 497 kts | 90° |
| 2026-05-08 00:08 | 52.02642 | -17.42739 | 37019 ft | 496 kts | 91° |
| 2026-05-08 00:08 | 52.02629 | -17.31516 | 37018 ft | 496 kts | 91° |
| 2026-05-08 00:09 | 52.02607 | -17.20298 | 37019 ft | 496 kts | 91° |
| 2026-05-08 00:09 | 52.02573 | -17.09138 | 37019 ft | 496 kts | 91° |
| 2026-05-08 00:10 | 52.02528 | -16.97907 | 37019 ft | 497 kts | 91° |
| 2026-05-08 00:10 | 52.02473 | -16.86663 | 37021 ft | 497 kts | 91° |
| 2026-05-08 00:11 | 52.02409 | -16.75520 | 37016 ft | 496 kts | 92° |
| 2026-05-08 00:11 | 52.02335 | -16.64305 | 37019 ft | 495 kts | 92° |
| 2026-05-08 00:12 | 52.02249 | -16.53103 | 37018 ft | 496 kts | 92° |
| 2026-05-08 00:12 | 52.02150 | -16.41891 | 37018 ft | 496 kts | 92° |
| 2026-05-08 00:13 | 52.02045 | -16.30751 | 37018 ft | 495 kts | 92° |
| 2026-05-08 00:13 | 52.01924 | -16.19553 | 37015 ft | 495 kts | 92° |
| 2026-05-08 00:14 | 52.01795 | -16.08372 | 37007 ft | 495 kts | 92° |
| 2026-05-08 00:14 | 52.01656 | -15.97202 | 37009 ft | 495 kts | 92° |
| 2026-05-08 00:15 | 52.01504 | -15.86012 | 37009 ft | 496 kts | 92° |
| 2026-05-08 00:15 | 52.01345 | -15.74874 | 37012 ft | 496 kts | 93° |
| 2026-05-08 00:16 | 52.01175 | -15.63628 | 37009 ft | 497 kts | 93° |
| 2026-05-08 00:16 | 52.00993 | -15.52466 | 37008 ft | 497 kts | 93° |
| 2026-05-08 00:17 | 52.00797 | -15.41245 | 37011 ft | 497 kts | 93° |
| 2026-05-08 00:17 | 52.00597 | -15.29999 | 37009 ft | 497 kts | 93° |
| 2026-05-08 00:18 | 52.00384 | -15.18836 | 37010 ft | 497 kts | 93° |
| 2026-05-08 00:18 | 52.00161 | -15.07629 | 37013 ft | 497 kts | 93° |
| 2026-05-08 00:19 | 51.99946 | -14.96484 | 37007 ft | 497 kts | 92° |
| 2026-05-08 00:19 | 51.99976 | -14.85261 | 37009 ft | 496 kts | 90° |
| 2026-05-08 00:20 | 52.00061 | -14.74038 | 37008 ft | 496 kts | 91° |
| 2026-05-08 00:20 | 52.00099 | -14.62840 | 37008 ft | 496 kts | 91° |
| 2026-05-08 00:21 | 52.00105 | -14.51725 | 37004 ft | 496 kts | 91° |
| 2026-05-08 00:21 | 52.00106 | -14.40491 | 37001 ft | 497 kts | 91° |
| 2026-05-08 00:22 | 52.00091 | -14.31159 | 36999 ft | 498 kts | 91° |
| 2026-05-08 00:22 | 52.00068 | -14.19924 | 37000 ft | 498 kts | 91° |
| 2026-05-08 00:23 | 52.00037 | -14.08639 | 37003 ft | 499 kts | 92° |
| 2026-05-08 00:23 | 51.99367 | -13.97450 | 37036 ft | 498 kts | 103° |
| 2026-05-08 00:24 | 51.98575 | -13.92073 | 37313 ft | 496 kts | 108° |
| 2026-05-08 00:24 | 51.97564 | -13.86723 | 37691 ft | 494 kts | 109° |
| 2026-05-08 00:24 | 51.96513 | -13.81424 | 38068 ft | 492 kts | 110° |
| 2026-05-08 00:24 | 51.95452 | -13.76146 | 38431 ft | 491 kts | 110° |
| 2026-05-08 00:25 | 51.94387 | -13.70865 | 38695 ft | 491 kts | 110° |
| 2026-05-08 00:25 | 51.93324 | -13.65575 | 38899 ft | 493 kts | 109° |
| 2026-05-08 00:25 | 51.91225 | -13.55011 | 38973 ft | 495 kts | 109° |
| 2026-05-08 00:26 | 51.89137 | -13.44415 | 38997 ft | 492 kts | 109° |
| 2026-05-08 00:26 | 51.87058 | -13.33895 | 38990 ft | 490 kts | 109° |
| 2026-05-08 00:27 | 51.84969 | -13.23415 | 38994 ft | 489 kts | 109° |
| 2026-05-08 00:27 | 51.82885 | -13.13002 | 39007 ft | 489 kts | 109° |
| 2026-05-08 00:28 | 51.80765 | -13.02523 | 38996 ft | 490 kts | 109° |
| 2026-05-08 00:28 | 51.78656 | -12.92109 | 38993 ft | 491 kts | 109° |
| 2026-05-08 00:29 | 51.76526 | -12.81627 | 38998 ft | 491 kts | 110° |
| 2026-05-08 00:29 | 51.74383 | -12.71149 | 39001 ft | 492 kts | 110° |
| 2026-05-08 00:30 | 51.72223 | -12.60673 | 39000 ft | 491 kts | 110° |
| 2026-05-08 00:30 | 51.70051 | -12.50195 | 39003 ft | 492 kts | 110° |
| 2026-05-08 00:31 | 51.67892 | -12.39805 | 39001 ft | 491 kts | 110° |
| 2026-05-08 00:31 | 51.65712 | -12.29366 | 39005 ft | 491 kts | 110° |
| 2026-05-08 00:32 | 51.63517 | -12.18930 | 38998 ft | 492 kts | 110° |
| 2026-05-08 00:32 | 51.61312 | -12.08501 | 38999 ft | 492 kts | 110° |
| 2026-05-08 00:33 | 51.59109 | -11.98128 | 39002 ft | 492 kts | 110° |
| 2026-05-08 00:33 | 51.56884 | -11.87711 | 39003 ft | 491 kts | 110° |
| 2026-05-08 00:34 | 51.54659 | -11.77344 | 39006 ft | 490 kts | 110° |
| 2026-05-08 00:34 | 51.52443 | -11.67068 | 38995 ft | 490 kts | 110° |
| 2026-05-08 00:35 | 51.50200 | -11.56721 | 38996 ft | 489 kts | 110° |
| 2026-05-08 00:35 | 51.47947 | -11.46386 | 39003 ft | 490 kts | 111° |
| 2026-05-08 00:36 | 51.45700 | -11.36116 | 39007 ft | 491 kts | 111° |
| 2026-05-08 00:36 | 51.43425 | -11.25772 | 39003 ft | 491 kts | 111° |
| 2026-05-08 00:37 | 51.41141 | -11.15451 | 38997 ft | 491 kts | 111° |
| 2026-05-08 00:38 | 51.37714 | -11.00063 | 38996 ft | 490 kts | 111° |
| 2026-05-08 00:38 | 51.35408 | -10.89773 | 39004 ft | 490 kts | 111° |
| 2026-05-08 00:39 | 51.33100 | -10.79497 | 39005 ft | 490 kts | 111° |
| 2026-05-08 00:39 | 51.30783 | -10.69245 | 38999 ft | 491 kts | 111° |
| 2026-05-08 00:40 | 51.28466 | -10.59052 | 38994 ft | 491 kts | 111° |
| 2026-05-08 00:40 | 51.26126 | -10.48803 | 39001 ft | 489 kts | 111° |
| 2026-05-08 00:41 | 51.23788 | -10.38602 | 39005 ft | 489 kts | 111° |
| 2026-05-08 00:41 | 51.21442 | -10.28413 | 39001 ft | 489 kts | 111° |
| 2026-05-08 00:42 | 51.19088 | -10.18254 | 38992 ft | 488 kts | 111° |
| 2026-05-08 00:42 | 51.16725 | -10.08092 | 39002 ft | 488 kts | 111° |
| 2026-05-08 00:43 | 51.14367 | -9.98013 | 38995 ft | 488 kts | 111° |
| 2026-05-08 00:43 | 51.11982 | -9.87875 | 38996 ft | 488 kts | 112° |
| 2026-05-08 00:44 | 51.09600 | -9.77761 | 38993 ft | 487 kts | 112° |
| 2026-05-08 00:44 | 51.07220 | -9.67726 | 38997 ft | 488 kts | 112° |
| 2026-05-08 00:45 | 51.04814 | -9.57635 | 38989 ft | 488 kts | 112° |
| 2026-05-08 00:45 | 51.02394 | -9.47530 | 38991 ft | 489 kts | 112° |
| 2026-05-08 00:46 | 50.99972 | -9.37438 | 38994 ft | 489 kts | 112° |
| 2026-05-08 00:46 | 50.97539 | -9.27361 | 38992 ft | 488 kts | 112° |
| 2026-05-08 00:47 | 50.95095 | -9.17309 | 38995 ft | 488 kts | 112° |
| 2026-05-08 00:47 | 50.92659 | -9.07318 | 38993 ft | 488 kts | 112° |
| 2026-05-08 00:48 | 50.90203 | -8.97284 | 38986 ft | 488 kts | 112° |
| 2026-05-08 00:48 | 50.87738 | -8.87256 | 38989 ft | 488 kts | 112° |
| 2026-05-08 00:49 | 50.85263 | -8.77250 | 38994 ft | 488 kts | 112° |
| 2026-05-08 00:49 | 50.82783 | -8.67256 | 38987 ft | 488 kts | 112° |
| 2026-05-08 00:50 | 50.80298 | -8.57290 | 38987 ft | 488 kts | 113° |
| 2026-05-08 00:50 | 50.77796 | -8.47306 | 38988 ft | 488 kts | 113° |
| 2026-05-08 00:51 | 50.75291 | -8.37343 | 38992 ft | 487 kts | 113° |
| 2026-05-08 00:51 | 50.72796 | -8.27468 | 38992 ft | 487 kts | 113° |
| 2026-05-08 00:52 | 50.70277 | -8.17543 | 38995 ft | 487 kts | 113° |
| 2026-05-08 00:52 | 50.67750 | -8.07623 | 38993 ft | 487 kts | 113° |
| 2026-05-08 00:53 | 50.65218 | -7.97689 | 38989 ft | 487 kts | 112° |
| 2026-05-08 00:53 | 50.62868 | -7.87667 | 38994 ft | 487 kts | 111° |
| 2026-05-08 00:54 | 50.60610 | -7.77688 | 38992 ft | 486 kts | 111° |
| 2026-05-08 00:54 | 50.58312 | -7.67682 | 38994 ft | 486 kts | 111° |
| 2026-05-08 00:55 | 50.55979 | -7.57656 | 38998 ft | 487 kts | 111° |
| 2026-05-08 00:55 | 50.53628 | -7.47654 | 38987 ft | 487 kts | 111° |
| 2026-05-08 00:56 | 50.51283 | -7.37717 | 38996 ft | 488 kts | 111° |
| 2026-05-08 00:56 | 50.48908 | -7.27708 | 38989 ft | 488 kts | 111° |
| 2026-05-08 00:57 | 50.46525 | -7.17692 | 38996 ft | 488 kts | 111° |
| 2026-05-08 00:57 | 50.44153 | -7.07776 | 38992 ft | 488 kts | 112° |
| 2026-05-08 00:58 | 50.41758 | -6.97806 | 38992 ft | 488 kts | 112° |
| 2026-05-08 00:58 | 50.39349 | -6.87824 | 38993 ft | 488 kts | 112° |
| 2026-05-08 00:59 | 50.36952 | -6.77938 | 38990 ft | 488 kts | 112° |
| 2026-05-08 00:59 | 50.34533 | -6.67997 | 38997 ft | 488 kts | 112° |
| 2026-05-08 01:00 | 50.32102 | -6.58061 | 38987 ft | 487 kts | 112° |
| 2026-05-08 01:00 | 50.29667 | -6.48153 | 38991 ft | 488 kts | 112° |
| 2026-05-08 01:01 | 50.27232 | -6.38293 | 38984 ft | 487 kts | 112° |
| 2026-05-08 01:01 | 50.24779 | -6.28399 | 38988 ft | 487 kts | 112° |
| 2026-05-08 01:02 | 50.22336 | -6.18586 | 38987 ft | 487 kts | 112° |
| 2026-05-08 01:02 | 50.19871 | -6.08729 | 38988 ft | 487 kts | 112° |
| 2026-05-08 01:03 | 50.17390 | -5.98859 | 38995 ft | 488 kts | 112° |
| 2026-05-08 01:03 | 50.14907 | -5.89018 | 38989 ft | 488 kts | 112° |
| 2026-05-08 01:04 | 50.12427 | -5.79235 | 38987 ft | 488 kts | 112° |
| 2026-05-08 01:04 | 50.09924 | -5.69400 | 38989 ft | 488 kts | 112° |
| 2026-05-08 01:05 | 50.07414 | -5.59580 | 38991 ft | 489 kts | 112° |
| 2026-05-08 01:05 | 50.04892 | -5.49755 | 38989 ft | 489 kts | 113° |
| 2026-05-08 01:06 | 50.02355 | -5.39924 | 38996 ft | 489 kts | 113° |
| 2026-05-08 01:06 | 49.99811 | -5.30103 | 38993 ft | 488 kts | 113° |
| 2026-05-08 01:07 | 49.97282 | -5.20375 | 38986 ft | 488 kts | 113° |
| 2026-05-08 01:07 | 49.94724 | -5.10592 | 38990 ft | 488 kts | 113° |
| 2026-05-08 01:08 | 49.92160 | -5.00816 | 38987 ft | 488 kts | 113° |
| 2026-05-08 01:08 | 49.89608 | -4.91128 | 38997 ft | 488 kts | 113° |
| 2026-05-08 01:09 | 49.87029 | -4.81368 | 39003 ft | 488 kts | 113° |
| 2026-05-08 01:09 | 49.84877 | -4.73273 | 38998 ft | 488 kts | 113° |
| 2026-05-08 01:10 | 49.82279 | -4.63536 | 39001 ft | 489 kts | 113° |
| 2026-05-08 01:10 | 49.79686 | -4.53848 | 38999 ft | 489 kts | 114° |
| 2026-05-08 01:11 | 49.77072 | -4.44130 | 39015 ft | 488 kts | 114° |
| 2026-05-08 01:11 | 49.74453 | -4.34420 | 39012 ft | 488 kts | 114° |
| 2026-05-08 01:12 | 49.71837 | -4.24780 | 39021 ft | 488 kts | 114° |
| 2026-05-08 01:12 | 49.69199 | -4.15078 | 39015 ft | 488 kts | 114° |
| 2026-05-08 01:13 | 49.66575 | -4.05383 | 39011 ft | 489 kts | 111° |
| 2026-05-08 01:13 | 49.64809 | -3.95297 | 39027 ft | 490 kts | 101° |
| 2026-05-08 01:14 | 49.64069 | -3.84843 | 39030 ft | 490 kts | 96° |
| 2026-05-08 01:14 | 49.63480 | -3.74328 | 39006 ft | 491 kts | 96° |
| 2026-05-08 01:15 | 49.62863 | -3.63891 | 39013 ft | 491 kts | 96° |
| 2026-05-08 01:15 | 49.62205 | -3.53394 | 39018 ft | 491 kts | 96° |
| 2026-05-08 01:16 | 49.61526 | -3.42903 | 39019 ft | 491 kts | 96° |
| 2026-05-08 01:16 | 49.60839 | -3.32423 | 39027 ft | 491 kts | 96° |
| 2026-05-08 01:17 | 49.60149 | -3.21998 | 39029 ft | 491 kts | 96° |
| 2026-05-08 01:17 | 49.59446 | -3.11523 | 39028 ft | 491 kts | 97° |
| 2026-05-08 01:18 | 49.58734 | -3.01049 | 39027 ft | 491 kts | 97° |
| 2026-05-08 01:18 | 49.58016 | -2.90640 | 39008 ft | 491 kts | 97° |
| 2026-05-08 01:19 | 49.57284 | -2.80187 | 39024 ft | 491 kts | 97° |
| 2026-05-08 01:19 | 49.56543 | -2.69721 | 39024 ft | 491 kts | 97° |
| 2026-05-08 01:20 | 49.55792 | -2.59260 | 39015 ft | 491 kts | 97° |
| 2026-05-08 01:20 | 49.55032 | -2.48802 | 39011 ft | 490 kts | 97° |
| 2026-05-08 01:21 | 49.54272 | -2.38445 | 39023 ft | 490 kts | 97° |
| 2026-05-08 01:21 | 49.53495 | -2.28013 | 39014 ft | 490 kts | 97° |
| 2026-05-08 01:22 | 49.52708 | -2.17593 | 39027 ft | 489 kts | 97° |
| 2026-05-08 01:22 | 49.51914 | -2.07176 | 39019 ft | 489 kts | 97° |
| 2026-05-08 01:23 | 49.51111 | -1.96775 | 39014 ft | 489 kts | 97° |
| 2026-05-08 01:23 | 49.50302 | -1.86423 | 39025 ft | 489 kts | 97° |
| 2026-05-08 01:24 | 49.49482 | -1.76041 | 39021 ft | 489 kts | 98° |
| 2026-05-08 01:24 | 49.48650 | -1.65629 | 39026 ft | 489 kts | 98° |
| 2026-05-08 01:25 | 49.47810 | -1.55305 | 39023 ft | 489 kts | 98° |
| 2026-05-08 01:25 | 49.46953 | -1.44909 | 39016 ft | 490 kts | 98° |
| 2026-05-08 01:26 | 49.46087 | -1.34511 | 39024 ft | 490 kts | 98° |
| 2026-05-08 01:26 | 49.45213 | -1.24115 | 39024 ft | 490 kts | 98° |
| 2026-05-08 01:27 | 49.44330 | -1.13720 | 39029 ft | 490 kts | 98° |
| 2026-05-08 01:27 | 49.43436 | -1.03321 | 39030 ft | 491 kts | 98° |
| 2026-05-08 01:28 | 49.42538 | -0.92968 | 39027 ft | 491 kts | 98° |
| 2026-05-08 01:28 | 49.41628 | -0.82572 | 39029 ft | 491 kts | 98° |
| 2026-05-08 01:29 | 49.40708 | -0.72231 | 39028 ft | 491 kts | 98° |
| 2026-05-08 01:29 | 49.39776 | -0.61842 | 39028 ft | 491 kts | 98° |
| 2026-05-08 01:30 | 49.38837 | -0.51456 | 38930 ft | 492 kts | 98° |
| 2026-05-08 01:30 | 49.38355 | -0.46168 | 38054 ft | 502 kts | 99° |
| 2026-05-08 01:30 | 49.37877 | -0.40955 | 37383 ft | 498 kts | 99° |
| 2026-05-08 01:30 | 49.37393 | -0.35700 | 36660 ft | 494 kts | 99° |
| 2026-05-08 01:31 | 49.36913 | -0.30506 | 36117 ft | 487 kts | 99° |
| 2026-05-08 01:31 | 49.36432 | -0.25338 | 34890 ft | 494 kts | 99° |
| 2026-05-08 01:31 | 49.35995 | -0.20096 | 33887 ft | 496 kts | 97° |
| 2026-05-08 01:31 | 49.35659 | -0.14815 | 32879 ft | 497 kts | 96° |
| 2026-05-08 01:32 | 49.35364 | -0.09537 | 31848 ft | 497 kts | 95° |
| 2026-05-08 01:32 | 49.35072 | -0.04247 | 30800 ft | 497 kts | 96° |
| 2026-05-08 01:32 | 49.34770 | 0.00988 | 30088 ft | 489 kts | 96° |
| 2026-05-08 01:32 | 49.34453 | 0.06149 | 29368 ft | 483 kts | 96° |
| 2026-05-08 01:33 | 49.34131 | 0.11255 | 28657 ft | 477 kts | 96° |
| 2026-05-08 01:33 | 49.33806 | 0.16296 | 27944 ft | 472 kts | 96° |
| 2026-05-08 01:33 | 49.33481 | 0.21283 | 27245 ft | 467 kts | 97° |
| 2026-05-08 01:33 | 49.33159 | 0.26206 | 26571 ft | 461 kts | 97° |
| 2026-05-08 01:34 | 49.32838 | 0.31070 | 25915 ft | 456 kts | 97° |
| 2026-05-08 01:34 | 49.32520 | 0.35869 | 25264 ft | 451 kts | 97° |
| 2026-05-08 01:34 | 49.32204 | 0.40626 | 24619 ft | 446 kts | 97° |
| 2026-05-08 01:34 | 49.31893 | 0.45270 | 24181 ft | 437 kts | 97° |
| 2026-05-08 01:35 | 49.31591 | 0.49820 | 23991 ft | 422 kts | 96° |
| 2026-05-08 01:35 | 49.31420 | 0.54299 | 23514 ft | 418 kts | 92° |
| 2026-05-08 01:35 | 49.31369 | 0.58751 | 23066 ft | 417 kts | 91° |
| 2026-05-08 01:35 | 49.31357 | 0.63151 | 22620 ft | 418 kts | 91° |
| 2026-05-08 01:36 | 49.31344 | 0.67623 | 22160 ft | 419 kts | 91° |
| 2026-05-08 01:36 | 49.31319 | 0.72092 | 21691 ft | 416 kts | 91° |
| 2026-05-08 01:36 | 49.31280 | 0.76509 | 21239 ft | 413 kts | 91° |
| 2026-05-08 01:36 | 49.31232 | 0.80900 | 20779 ft | 410 kts | 92° |
| 2026-05-08 01:37 | 49.31179 | 0.85203 | 20343 ft | 408 kts | 92° |
| 2026-05-08 01:37 | 49.31120 | 0.89541 | 19897 ft | 405 kts | 92° |
| 2026-05-08 01:37 | 49.31060 | 0.93858 | 19447 ft | 403 kts | 92° |
| 2026-05-08 01:37 | 49.30999 | 0.98129 | 19007 ft | 400 kts | 92° |
| 2026-05-08 01:38 | 49.30937 | 1.02389 | 18571 ft | 398 kts | 92° |
| 2026-05-08 01:38 | 49.30873 | 1.06606 | 18133 ft | 395 kts | 92° |
| 2026-05-08 01:38 | 49.30808 | 1.10807 | 17700 ft | 393 kts | 92° |
| 2026-05-08 01:38 | 49.30741 | 1.14980 | 17266 ft | 390 kts | 92° |
| 2026-05-08 01:39 | 49.30674 | 1.19128 | 16842 ft | 388 kts | 92° |
| 2026-05-08 01:39 | 49.30606 | 1.23260 | 16415 ft | 386 kts | 92° |
| 2026-05-08 01:39 | 49.30537 | 1.27357 | 15993 ft | 384 kts | 92° |
| 2026-05-08 01:39 | 49.30467 | 1.31429 | 15571 ft | 381 kts | 92° |
| 2026-05-08 01:40 | 49.30398 | 1.35477 | 15153 ft | 379 kts | 92° |
| 2026-05-08 01:40 | 49.30327 | 1.39502 | 14738 ft | 377 kts | 92° |
| 2026-05-08 01:40 | 49.30254 | 1.43494 | 14327 ft | 374 kts | 92° |
| 2026-05-08 01:40 | 49.30182 | 1.47418 | 13926 ft | 371 kts | 92° |
| 2026-05-08 01:41 | 49.30108 | 1.51366 | 13520 ft | 369 kts | 92° |
| 2026-05-08 01:41 | 49.30032 | 1.55282 | 13117 ft | 367 kts | 92° |
| 2026-05-08 01:41 | 49.29938 | 1.59189 | 12710 ft | 364 kts | 94° |
| 2026-05-08 01:41 | 49.29766 | 1.63053 | 12310 ft | 362 kts | 95° |
| 2026-05-08 01:42 | 49.29580 | 1.66885 | 11915 ft | 359 kts | 95° |
| 2026-05-08 01:42 | 49.29403 | 1.70643 | 11525 ft | 356 kts | 95° |
| 2026-05-08 01:42 | 49.28967 | 1.74272 | 11120 ft | 341 kts | 113° |
| 2026-05-08 01:42 | 49.27734 | 1.77311 | 10810 ft | 332 kts | 132° |
| 2026-05-08 01:43 | 49.26030 | 1.79651 | 10509 ft | 323 kts | 142° |
| 2026-05-08 01:43 | 49.24284 | 1.81717 | 10189 ft | 307 kts | 143° |
| 2026-05-08 01:43 | 49.22625 | 1.83651 | 9918 ft | 301 kts | 143° |
| 2026-05-08 01:43 | 49.20970 | 1.85580 | 9476 ft | 292 kts | 143° |
| 2026-05-08 01:44 | 49.19403 | 1.87420 | 8993 ft | 275 kts | 143° |
| 2026-05-08 01:44 | 49.17926 | 1.89159 | 8516 ft | 261 kts | 143° |
| 2026-05-08 01:44 | 49.16516 | 1.90825 | 8048 ft | 250 kts | 143° |
| 2026-05-08 01:44 | 49.15167 | 1.92420 | 7585 ft | 242 kts | 142° |
| 2026-05-08 01:45 | 49.13852 | 1.93979 | 7148 ft | 246 kts | 142° |
| 2026-05-08 01:45 | 49.12478 | 1.95606 | 6738 ft | 253 kts | 142° |
| 2026-05-08 01:45 | 49.11070 | 1.97272 | 6300 ft | 258 kts | 142° |
| 2026-05-08 01:45 | 49.09635 | 1.98971 | 5867 ft | 263 kts | 142° |
| 2026-05-08 01:46 | 49.08174 | 2.00701 | 5411 ft | 267 kts | 142° |
| 2026-05-08 01:46 | 49.06690 | 2.02455 | 4991 ft | 271 kts | 142° |
| 2026-05-08 01:46 | 49.05227 | 2.04187 | 4536 ft | 259 kts | 142° |
| 2026-05-08 01:46 | 49.03856 | 2.05807 | 4129 ft | 244 kts | 142° |
| 2026-05-08 01:47 | 49.02566 | 2.07331 | 3988 ft | 227 kts | 142° |
| 2026-05-08 01:47 | 49.01351 | 2.08761 | 3987 ft | 214 kts | 142° |
| 2026-05-08 01:47 | 49.00196 | 2.10121 | 3986 ft | 207 kts | 142° |
| 2026-05-08 01:48 | 48.97920 | 2.12855 | 3989 ft | 206 kts | 134° |
| 2026-05-08 01:48 | 48.97321 | 2.14720 | 3984 ft | 193 kts | 97° |
| 2026-05-08 01:48 | 48.97281 | 2.16727 | 4023 ft | 188 kts | 90° |
| 2026-05-08 01:48 | 48.97311 | 2.18723 | 3993 ft | 188 kts | 88° |
| 2026-05-08 01:49 | 48.97386 | 2.20704 | 3992 ft | 187 kts | 86° |
| 2026-05-08 01:49 | 48.97480 | 2.22661 | 3987 ft | 187 kts | 86° |
| 2026-05-08 01:49 | 48.97580 | 2.24604 | 4001 ft | 185 kts | 85° |
| 2026-05-08 01:49 | 48.97686 | 2.26580 | 4004 ft | 188 kts | 85° |
| 2026-05-08 01:50 | 48.97791 | 2.28567 | 3898 ft | 188 kts | 85° |
| 2026-05-08 01:50 | 48.97892 | 2.30443 | 3651 ft | 166 kts | 85° |
| 2026-05-08 01:50 | 48.97980 | 2.32097 | 3449 ft | 149 kts | 85° |
| 2026-05-08 01:50 | 48.98064 | 2.33631 | 3264 ft | 143 kts | 86° |
| 2026-05-08 01:51 | 48.98144 | 2.35127 | 3087 ft | 143 kts | 86° |
| 2026-05-08 01:51 | 48.98224 | 2.36639 | 2893 ft | 143 kts | 85° |
| 2026-05-08 01:51 | 48.98304 | 2.38142 | 2718 ft | 143 kts | 85° |
| 2026-05-08 01:51 | 48.98385 | 2.39654 | 2517 ft | 143 kts | 85° |
| 2026-05-08 01:52 | 48.98466 | 2.41160 | 2328 ft | 143 kts | 85° |
| 2026-05-08 01:52 | 48.98546 | 2.42668 | 2137 ft | 143 kts | 85° |
| 2026-05-08 01:52 | 48.98627 | 2.44176 | 1951 ft | 143 kts | 84° |
| 2026-05-08 01:52 | 48.98708 | 2.45681 | 1749 ft | 142 kts | 84° |
| 2026-05-08 01:53 | 48.98789 | 2.47186 | 1569 ft | 142 kts | 84° |
| 2026-05-08 01:53 | 48.98868 | 2.48690 | 1382 ft | 143 kts | 84° |
| 2026-05-08 01:53 | 48.98949 | 2.50198 | 1191 ft | 142 kts | 84° |
| 2026-05-08 01:53 | 48.99029 | 2.51688 | 1003 ft | 141 kts | 84° |
| 2026-05-08 01:54 | 48.99107 | 2.53155 | 819 ft | 140 kts | 85° |
| 2026-05-08 01:54 | 48.99186 | 2.54638 | 634 ft | 140 kts | 85° |
| 2026-05-08 01:54 | 48.99266 | 2.56119 | 451 ft | 140 kts | 85° |
| 2026-05-08 01:54 | 48.99344 | 2.57581 | 359 ft | 132 kts | 85° |
| 2026-05-08 01:55 | 48.99405 | 2.58720 | 359 ft | 82 kts | 85° |
| 2026-05-08 01:55 | 48.99453 | 2.59195 | 361 ft | 34 kts | 68° |
| 2026-05-08 01:55 | 48.99504 | 2.59372 | 357 ft | 7 kts | 64° |
| 2026-05-08 01:55 | 48.99525 | 2.59440 | 360 ft | 7 kts | 67° |
| 2026-05-08 01:56 | 48.99547 | 2.59513 | 358 ft | 8 kts | 64° |
| 2026-05-08 01:56 | 48.99573 | 2.59594 | 360 ft | 9 kts | 63° |
| 2026-05-08 01:56 | 48.99613 | 2.59666 | 359 ft | 10 kts | 30° |
| 2026-05-08 01:56 | 48.99681 | 2.59684 | 359 ft | 11 kts | 357° |
| 2026-05-08 01:57 | 48.99761 | 2.59676 | 364 ft | 13 kts | 356° |
| 2026-05-08 01:57 | 48.99855 | 2.59662 | 364 ft | 14 kts | 354° |
| 2026-05-08 01:57 | 48.99950 | 2.59633 | 359 ft | 14 kts | 329° |
| 2026-05-08 01:57 | 48.99981 | 2.59496 | 359 ft | 15 kts | 268° |
| 2026-05-08 01:58 | 48.99975 | 2.59339 | 363 ft | 15 kts | 265° |
| 2026-05-08 01:58 | 48.99968 | 2.59231 | 362 ft | 16 kts | 265° |
| 2026-05-08 01:58 | 48.99973 | 2.59064 | 359 ft | 16 kts | 295° |
| 2026-05-08 01:58 | 49.00133 | 2.58888 | 367 ft | 28 kts | 352° |
| 2026-05-08 01:59 | 49.00186 | 2.58878 | 362 ft | 14 kts | 354° |
| 2026-05-08 01:59 | 49.00260 | 2.58901 | 364 ft | 11 kts | 52° |
| 2026-05-08 01:59 | 49.00264 | 2.58972 | 359 ft | 2 kts | 88° |
| 2026-05-08 01:59 | 49.00264 | 2.59001 | 359 ft | 1 kts | 86° |
| 2026-05-08 02:00 | 49.00264 | 2.59003 | 361 ft | 0 kts | 86° |